createdAt,value
2023-03-11T00:00:13.617Z,59.07
2023-03-11T00:02:41.130Z,59.07
2023-03-11T00:05:08.813Z,59.10
2023-03-11T00:07:37.717Z,59.09
2023-03-11T00:10:04.923Z,59.17
2023-03-11T00:12:31.747Z,59.01
2023-03-11T00:14:58.581Z,59.17
2023-03-11T00:17:25.332Z,59.24
2023-03-11T00:19:51.921Z,59.31
2023-03-11T00:22:18.708Z,59.17
2023-03-11T00:24:45.352Z,59.31
2023-03-11T00:27:11.993Z,59.30
2023-03-11T00:29:38.630Z,59.00
2023-03-11T00:32:07.229Z,59.40
2023-03-11T00:34:33.885Z,59.27
2023-03-11T00:37:00.762Z,59.27
2023-03-11T00:39:27.320Z,59.20
2023-03-11T00:41:54.109Z,59.35
2023-03-11T00:44:21.011Z,59.18
2023-03-11T00:46:47.634Z,59.28
2023-03-11T00:49:14.547Z,59.30
2023-03-11T00:51:41.391Z,59.10
2023-03-11T00:54:08.105Z,59.25
2023-03-11T00:56:34.943Z,59.27
2023-03-11T00:59:01.893Z,59.32
2023-03-11T01:01:28.815Z,59.41
2023-03-11T01:03:57.217Z,59.26
2023-03-11T01:06:26.118Z,59.20
2023-03-11T01:08:54.636Z,59.16
2023-03-11T01:11:21.652Z,59.12
2023-03-11T01:13:48.334Z,59.19
2023-03-11T01:16:15.376Z,59.21
2023-03-11T01:18:42.723Z,59.04
2023-03-11T01:21:09.365Z,59.09
2023-03-11T01:23:36.196Z,58.99
2023-03-11T01:26:02.910Z,59.13
2023-03-11T01:28:29.564Z,59.48
2023-03-11T01:30:58.759Z,59.51
2023-03-11T01:33:29.172Z,59.44
2023-03-11T01:35:55.997Z,59.22
2023-03-11T01:38:22.666Z,59.21
2023-03-11T01:40:51.214Z,59.22
2023-03-11T01:43:37.032Z,59.23
2023-03-11T01:46:25.907Z,59.30
2023-03-11T01:48:55.358Z,59.31
2023-03-11T01:51:41.887Z,59.37
2023-03-11T01:54:14.709Z,59.34
2023-03-11T01:56:42.704Z,59.54
2023-03-11T01:59:14.287Z,59.43
2023-03-11T02:01:59.462Z,59.26
2023-03-11T02:04:28.592Z,59.40
2023-03-11T02:06:58.686Z,59.27
2023-03-11T02:09:27.023Z,59.63
2023-03-11T02:11:54.807Z,59.44
2023-03-11T02:14:21.858Z,59.50
2023-03-11T02:16:48.564Z,59.52
2023-03-11T02:19:27.284Z,59.44
2023-03-11T02:21:55.675Z,59.80
2023-03-11T02:24:40.901Z,59.85
2023-03-11T02:27:13.947Z,59.86
2023-03-11T02:29:43.206Z,59.61
2023-03-11T02:32:11.092Z,59.82
2023-03-11T02:34:42.740Z,59.75
2023-03-11T02:37:12.908Z,59.90
2023-03-11T02:39:46.465Z,59.90
2023-03-11T02:42:24.976Z,59.87
2023-03-11T02:45:08.210Z,59.98
2023-03-11T02:47:37.897Z,59.85
2023-03-11T02:50:09.516Z,59.83
2023-03-11T02:52:36.684Z,59.94
2023-03-11T02:55:04.359Z,60.20
2023-03-11T02:57:31.132Z,59.90
2023-03-11T02:59:58.036Z,60.15
2023-03-11T03:02:24.757Z,60.03
2023-03-11T03:04:52.252Z,59.81
2023-03-11T03:07:19.197Z,60.13
2023-03-11T03:09:45.964Z,60.20
2023-03-11T03:12:12.913Z,60.21
2023-03-11T03:14:39.710Z,60.29
2023-03-11T03:17:06.559Z,60.41
2023-03-11T03:19:33.288Z,60.32
2023-03-11T03:22:00.099Z,60.16
2023-03-11T03:24:27.300Z,60.19
2023-03-11T03:26:53.898Z,59.77
2023-03-11T03:29:20.698Z,60.31
2023-03-11T03:31:49.236Z,60.22
2023-03-11T03:34:15.975Z,60.30
2023-03-11T03:36:42.805Z,59.83
2023-03-11T03:39:09.704Z,60.41
2023-03-11T03:41:37.620Z,60.57
2023-03-11T03:44:06.063Z,60.47
2023-03-11T03:46:34.480Z,60.22
2023-03-11T03:49:03.069Z,60.53
2023-03-11T03:51:31.288Z,60.34
2023-03-11T03:54:05.741Z,60.33
2023-03-11T03:56:32.613Z,60.35
2023-03-11T03:59:01.071Z,60.70
2023-03-11T04:01:34.375Z,60.13
2023-03-11T04:04:01.309Z,60.50
2023-03-11T04:06:28.888Z,60.66
2023-03-11T04:09:00.594Z,60.49
2023-03-11T04:11:32.433Z,60.42
2023-03-11T04:14:02.530Z,60.62
2023-03-11T04:16:32.328Z,60.82
2023-03-11T04:19:06.915Z,60.67
2023-03-11T04:21:34.842Z,60.56
2023-03-11T04:24:02.022Z,60.42
2023-03-11T04:26:33.296Z,60.59
2023-03-11T04:29:00.622Z,60.72
2023-03-11T04:31:30.533Z,60.65
2023-03-11T04:33:59.825Z,60.30
2023-03-11T04:36:26.601Z,60.46
2023-03-11T04:38:53.569Z,60.55
2023-03-11T04:41:21.540Z,60.43
2023-03-11T04:43:48.827Z,60.42
2023-03-11T04:46:16.210Z,60.52
2023-03-11T04:48:43.181Z,60.60
2023-03-11T04:51:10.022Z,60.67
2023-03-11T04:53:37.217Z,60.45
2023-03-11T04:56:04.601Z,60.51
2023-03-11T04:58:31.897Z,60.56
2023-03-11T05:00:58.889Z,60.56
2023-03-11T05:03:26.125Z,60.71
2023-03-11T05:05:56.609Z,60.57
2023-03-11T05:08:24.670Z,60.52
2023-03-11T05:10:52.911Z,60.43
2023-03-11T05:13:21.624Z,60.42
2023-03-11T05:15:50.453Z,60.68
2023-03-11T05:18:17.268Z,60.37
2023-03-11T05:20:44.456Z,60.29
2023-03-11T05:23:12.458Z,60.49
2023-03-11T05:25:39.630Z,60.64
2023-03-11T05:28:06.470Z,60.69
2023-03-11T05:30:37.683Z,60.53
2023-03-11T05:33:04.887Z,60.77
2023-03-11T05:35:32.181Z,60.69
2023-03-11T05:37:59.284Z,60.90
2023-03-11T05:40:28.939Z,60.79
2023-03-11T05:42:55.815Z,60.79
2023-03-11T05:45:22.965Z,60.63
2023-03-11T05:47:54.221Z,60.74
2023-03-11T05:50:20.868Z,60.73
2023-03-11T05:52:49.268Z,60.61
2023-03-11T05:55:16.714Z,60.65
2023-03-11T05:57:45.510Z,60.61
2023-03-11T06:00:13.101Z,61.17
2023-03-11T06:02:48.457Z,61.08
2023-03-11T06:05:18.178Z,60.98
2023-03-11T06:07:46.968Z,60.87
2023-03-11T06:10:14.187Z,60.72
2023-03-11T06:12:41.440Z,60.74
2023-03-11T06:15:20.710Z,60.61
2023-03-11T06:17:47.378Z,60.66
2023-03-11T06:20:14.302Z,60.90
2023-03-11T06:22:41.747Z,60.59
2023-03-11T06:25:09.707Z,60.77
2023-03-11T06:27:38.529Z,60.81
2023-03-11T06:30:07.339Z,61.18
2023-03-11T06:32:40.758Z,61.06
2023-03-11T06:35:08.705Z,60.94
2023-03-11T06:37:38.283Z,60.74
2023-03-11T06:40:07.949Z,60.84
2023-03-11T06:42:35.747Z,60.68
2023-03-11T06:45:04.438Z,60.97
2023-03-11T06:47:31.570Z,61.01
2023-03-11T06:49:59.426Z,60.99
2023-03-11T06:52:27.009Z,60.89
2023-03-11T06:54:55.381Z,60.97
2023-03-11T06:57:22.300Z,61.08
2023-03-11T06:59:50.854Z,61.16
2023-03-11T07:02:18.841Z,61.11
2023-03-11T07:04:49.561Z,60.90
2023-03-11T07:07:17.908Z,60.91
2023-03-11T07:09:44.919Z,61.07
2023-03-11T07:12:15.006Z,61.83
2023-03-11T07:14:42.157Z,61.78
2023-03-11T07:17:08.800Z,61.69
2023-03-11T07:19:45.164Z,61.63
2023-03-11T07:22:11.988Z,61.81
2023-03-11T07:24:38.693Z,61.55
2023-03-11T07:27:05.292Z,61.25
2023-03-11T07:29:31.910Z,61.36
2023-03-11T07:31:58.623Z,61.50
2023-03-11T07:34:25.430Z,61.24
2023-03-11T07:36:52.217Z,61.13
2023-03-11T07:39:19.992Z,61.29
2023-03-11T07:41:47.242Z,61.18
2023-03-11T07:44:15.903Z,60.97
2023-03-11T07:46:43.447Z,61.13
2023-03-11T07:49:10.700Z,61.57
2023-03-11T07:51:39.522Z,61.13
2023-03-11T07:54:06.694Z,61.47
2023-03-11T07:56:35.466Z,61.15
2023-03-11T07:59:04.298Z,61.06
2023-03-11T08:01:36.443Z,61.43
2023-03-11T08:04:08.960Z,61.34
2023-03-11T08:06:37.235Z,61.12
2023-03-11T08:09:09.091Z,61.15
2023-03-11T08:11:36.756Z,61.19
2023-03-11T08:14:04.562Z,60.97
2023-03-11T08:16:31.868Z,61.32
2023-03-11T08:18:58.696Z,61.21
2023-03-11T08:21:28.788Z,61.14
2023-03-11T08:24:00.262Z,61.34
2023-03-11T08:26:27.484Z,61.39
2023-03-11T08:28:56.091Z,61.21
2023-03-11T08:31:25.921Z,61.15
2023-03-11T08:33:56.871Z,61.19
2023-03-11T08:36:24.023Z,61.43
2023-03-11T08:38:50.748Z,60.89
2023-03-11T08:41:17.987Z,61.24
2023-03-11T08:43:45.101Z,61.35
2023-03-11T08:46:28.704Z,61.48
2023-03-11T08:48:56.339Z,61.50
2023-03-11T08:51:24.429Z,61.37
2023-03-11T08:53:52.486Z,61.26
2023-03-11T08:56:19.819Z,61.22
2023-03-11T08:58:47.301Z,61.19
2023-03-11T09:01:14.210Z,61.42
2023-03-11T09:03:40.935Z,61.25
2023-03-11T09:06:11.411Z,61.31
2023-03-11T09:08:38.372Z,61.48
2023-03-11T09:11:05.771Z,61.31
2023-03-11T09:13:33.156Z,61.20
2023-03-11T09:16:00.204Z,61.47
2023-03-11T09:18:27.436Z,61.43
2023-03-11T09:20:58.277Z,61.39
2023-03-11T09:23:25.086Z,61.46
2023-03-11T09:25:52.069Z,61.31
2023-03-11T09:28:18.885Z,61.27
2023-03-11T09:30:45.607Z,61.60
2023-03-11T09:33:12.261Z,61.61
2023-03-11T09:35:39.811Z,61.68
2023-03-11T09:38:06.822Z,61.54
2023-03-11T09:40:44.063Z,61.80
2023-03-11T09:43:50.448Z,61.38
2023-03-11T09:46:19.973Z,61.08
2023-03-11T09:48:57.741Z,61.12
2023-03-11T09:51:35.292Z,61.18
2023-03-11T09:54:09.893Z,61.08
2023-03-11T09:56:37.953Z,60.62
2023-03-11T09:59:15.058Z,60.51
2023-03-11T10:01:45.233Z,60.08
2023-03-11T10:04:18.813Z,59.84
2023-03-11T10:06:47.344Z,59.60
2023-03-11T10:09:32.715Z,59.43
2023-03-11T10:12:08.867Z,59.03
2023-03-11T10:14:47.953Z,58.53
2023-03-11T10:17:32.787Z,58.36
2023-03-11T10:20:17.946Z,58.52
2023-03-11T10:22:50.827Z,57.97
2023-03-11T10:25:36.583Z,57.95
2023-03-11T10:28:13.506Z,57.59
2023-03-11T10:31:03.413Z,57.32
2023-03-11T10:33:40.034Z,57.46
2023-03-11T10:36:14.264Z,57.30
2023-03-11T10:38:46.719Z,57.06
2023-03-11T10:41:32.333Z,57.50
2023-03-11T10:44:04.421Z,57.12
2023-03-11T10:46:31.141Z,57.37
2023-03-11T10:48:57.920Z,57.09
2023-03-11T10:51:34.298Z,57.02
2023-03-11T10:54:03.754Z,56.71
2023-03-11T10:56:33.510Z,56.98
2023-03-11T10:59:01.909Z,56.78
2023-03-11T11:01:30.369Z,56.82
2023-03-11T11:04:00.795Z,56.90
2023-03-11T11:06:32.687Z,56.94
2023-03-11T11:09:21.043Z,56.59
2023-03-11T11:15:22.114Z,56.40
2023-03-11T11:17:49.272Z,56.26
2023-03-11T11:20:19.345Z,56.09
2023-03-11T11:22:52.364Z,56.00
2023-03-11T11:25:35.276Z,56.09
2023-03-11T11:28:21.363Z,56.15
2023-03-11T11:30:52.767Z,56.31
2023-03-11T11:33:30.764Z,56.27
2023-03-11T11:36:01.420Z,56.19
2023-03-11T11:38:30.169Z,56.49
2023-03-11T11:41:01.572Z,56.25
2023-03-11T11:43:52.283Z,56.05
2023-03-11T11:46:31.411Z,56.15
2023-03-11T11:49:08.258Z,55.90
2023-03-11T11:52:05.967Z,56.12
2023-03-11T11:54:40.785Z,56.17
2023-03-11T11:57:19.716Z,56.08
2023-03-11T11:59:47.237Z,56.11
2023-03-11T12:02:19.773Z,56.20
2023-03-11T12:05:23.761Z,56.04
2023-03-11T12:07:56.119Z,56.16
2023-03-11T12:10:41.641Z,55.95
2023-03-11T12:13:29.042Z,55.77
2023-03-11T12:16:19.002Z,55.76
2023-03-11T12:19:13.108Z,55.63
2023-03-11T12:21:58.862Z,55.85
2023-03-11T12:24:42.552Z,55.61
2023-03-11T12:27:41.844Z,55.83
2023-03-11T12:30:27.270Z,55.54
2023-03-11T12:33:02.448Z,55.54
2023-03-11T12:35:35.565Z,55.49
2023-03-11T12:38:20.979Z,55.59
2023-03-11T12:50:35.376Z,55.26
2023-03-11T12:53:02.048Z,55.24
2023-03-11T12:55:34.498Z,55.40
2023-03-11T12:58:27.590Z,55.44
2023-03-11T13:01:22.953Z,55.29
2023-03-11T13:04:21.639Z,55.07
2023-03-11T13:07:18.992Z,54.94
2023-03-11T13:09:45.779Z,55.05
2023-03-11T13:12:47.755Z,54.94
2023-03-11T13:15:20.387Z,54.94
2023-03-11T13:18:24.825Z,55.03
2023-03-11T13:20:58.246Z,54.86
2023-03-11T13:23:29.686Z,55.02
2023-03-11T13:25:56.610Z,54.90
2023-03-11T13:29:04.346Z,54.74
2023-03-11T13:31:59.242Z,55.07
2023-03-11T13:34:59.898Z,54.81
2023-03-11T13:37:44.920Z,54.81
2023-03-11T13:40:14.346Z,54.84
2023-03-11T13:42:46.422Z,54.80
2023-03-11T13:45:27.458Z,54.90
2023-03-11T13:47:59.032Z,54.62
2023-03-11T13:50:44.438Z,54.56
2023-03-11T13:53:21.254Z,54.51
2023-03-11T13:55:48.535Z,54.20
2023-03-11T13:58:19.994Z,54.38
2023-03-11T14:00:49.995Z,54.23
2023-03-11T14:03:22.111Z,54.16
2023-03-11T14:05:56.080Z,54.20
2023-03-11T14:08:24.906Z,53.84
2023-03-11T14:10:54.941Z,54.21
2023-03-11T14:13:22.955Z,54.06
2023-03-11T14:16:04.321Z,53.80
2023-03-11T14:18:37.801Z,53.68
2023-03-11T14:21:10.859Z,53.66
2023-03-11T14:23:43.506Z,53.44
2023-03-11T14:26:20.892Z,53.47
2023-03-11T14:28:59.683Z,53.22
2023-03-11T14:31:31.393Z,53.42
2023-03-11T14:34:07.563Z,53.38
2023-03-11T14:36:42.314Z,53.26
2023-03-11T14:39:27.830Z,53.21
2023-03-11T14:41:59.806Z,53.31
2023-03-11T14:44:28.727Z,53.11
2023-03-11T14:47:09.333Z,53.24
2023-03-11T14:49:37.157Z,53.16
2023-03-11T14:52:13.530Z,53.14
2023-03-11T14:54:41.768Z,52.97
2023-03-11T14:57:19.093Z,52.83
2023-03-11T14:59:50.344Z,53.00
2023-03-11T15:02:26.571Z,53.06
2023-03-11T15:04:55.331Z,52.99
2023-03-11T15:07:22.286Z,53.12
2023-03-11T15:09:52.066Z,53.08
2023-03-11T15:12:43.225Z,52.89
2023-03-11T15:15:25.481Z,52.85
2023-03-11T15:17:57.634Z,52.90
2023-03-11T15:20:31.158Z,52.92
2023-03-11T15:23:03.604Z,52.85
2023-03-11T15:25:34.257Z,52.84
2023-03-11T15:28:34.738Z,52.92
2023-03-11T15:31:19.879Z,52.82
2023-03-11T15:33:48.023Z,52.84
2023-03-11T15:36:35.777Z,52.73
2023-03-11T15:39:14.253Z,52.62
2023-03-11T15:41:42.768Z,53.05
2023-03-11T15:44:24.625Z,52.41
2023-03-11T15:46:51.701Z,52.46
2023-03-11T15:49:18.491Z,52.44
2023-03-11T15:51:45.209Z,51.88
2023-03-11T15:54:11.872Z,51.68
2023-03-11T15:56:40.399Z,51.29
2023-03-11T15:59:12.144Z,50.91
2023-03-11T16:01:38.729Z,51.15
2023-03-11T16:04:12.187Z,50.84
2023-03-11T16:06:38.855Z,50.87
2023-03-11T16:09:05.709Z,50.94
2023-03-11T16:11:32.898Z,50.81
2023-03-11T16:14:00.232Z,50.87
2023-03-11T16:16:27.177Z,50.58
2023-03-11T16:18:54.076Z,50.69
2023-03-11T16:21:24.175Z,50.83
2023-03-11T16:23:52.428Z,50.80
2023-03-11T16:26:19.718Z,50.66
2023-03-11T16:28:46.380Z,50.67
2023-03-11T16:31:13.233Z,50.73
2023-03-11T16:33:39.905Z,50.76
2023-03-11T16:36:06.647Z,50.89
2023-03-11T16:38:43.142Z,50.84
2023-03-11T16:41:10.107Z,50.83
2023-03-11T16:43:37.166Z,51.08
2023-03-11T16:46:04.019Z,51.32
2023-03-11T16:48:30.747Z,51.60
2023-03-11T16:50:57.416Z,51.72
2023-03-11T16:53:25.262Z,51.87
2023-03-11T16:55:52.776Z,52.15
2023-03-11T16:58:20.177Z,52.44
2023-03-11T17:00:47.241Z,52.23
2023-03-11T17:03:15.915Z,52.41
2023-03-11T17:05:43.188Z,52.50
2023-03-11T17:08:10.251Z,52.44
2023-03-11T17:10:38.799Z,52.50
2023-03-11T17:13:07.308Z,52.54
2023-03-11T17:15:38.339Z,52.49
2023-03-11T17:18:06.093Z,52.34
2023-03-11T17:20:33.588Z,52.30
2023-03-11T17:23:01.137Z,52.30
2023-03-11T17:25:27.884Z,52.44
2023-03-11T17:27:54.581Z,52.28
2023-03-11T17:30:35.673Z,52.29
2023-03-11T17:33:03.476Z,52.23
2023-03-11T17:35:48.901Z,52.28
2023-03-11T17:38:16.654Z,52.23
2023-03-11T17:40:43.561Z,52.23
2023-03-11T17:43:10.501Z,52.03
2023-03-11T17:45:38.935Z,52.20
2023-03-11T17:48:05.999Z,52.39
2023-03-11T17:50:32.902Z,52.26
2023-03-11T17:52:59.761Z,52.19
2023-03-11T17:55:26.741Z,52.24
2023-03-11T17:57:53.531Z,52.44
2023-03-11T18:00:20.865Z,52.24
2023-03-11T18:02:47.766Z,52.40
2023-03-11T18:05:14.538Z,52.32
2023-03-11T18:07:42.304Z,52.35
2023-03-11T18:10:10.800Z,52.41
2023-03-11T18:12:38.743Z,52.57
2023-03-11T18:15:08.174Z,52.30
2023-03-11T18:17:35.692Z,52.38
2023-03-11T18:20:02.909Z,52.26
2023-03-11T18:22:29.640Z,52.44
2023-03-11T18:24:56.296Z,52.31
2023-03-11T18:27:24.474Z,52.27
2023-03-11T18:29:52.084Z,52.33
2023-03-11T18:32:20.897Z,52.29
2023-03-11T18:34:51.345Z,52.47
2023-03-11T18:37:21.187Z,52.40
2023-03-11T18:39:48.065Z,52.46
2023-03-11T18:42:15.953Z,52.48
2023-03-11T18:44:42.815Z,52.51
2023-03-11T18:47:09.734Z,52.32
2023-03-11T18:49:36.659Z,52.40
2023-03-11T18:52:03.858Z,52.42
2023-03-11T18:54:30.698Z,52.49
2023-03-11T18:56:57.546Z,52.47
2023-03-11T18:59:24.377Z,52.39
2023-03-11T19:01:51.191Z,52.51
2023-03-11T19:04:18.052Z,52.48
2023-03-11T19:06:44.911Z,52.47
2023-03-11T19:09:11.993Z,52.37
2023-03-11T19:11:38.839Z,52.35
2023-03-11T19:14:05.694Z,52.31
2023-03-11T19:16:32.466Z,52.34
2023-03-11T19:18:59.310Z,52.38
2023-03-11T19:21:26.071Z,52.33
2023-03-11T19:23:55.166Z,52.46
2023-03-11T19:26:33.774Z,52.53
2023-03-11T19:29:08.785Z,52.49
2023-03-11T19:31:35.447Z,52.52
2023-03-11T19:34:02.199Z,52.38
2023-03-11T19:36:28.986Z,52.57
2023-03-11T19:38:55.694Z,52.10
2023-03-11T19:41:23.212Z,52.39
2023-03-11T19:43:49.890Z,52.42
2023-03-11T19:46:19.538Z,52.52
2023-03-11T19:48:46.486Z,52.57
2023-03-11T19:51:13.467Z,52.52
2023-03-11T19:53:41.776Z,52.42
2023-03-11T19:56:09.463Z,52.41
2023-03-11T19:58:36.390Z,52.35
2023-03-11T20:01:03.484Z,52.39
2023-03-11T20:03:30.537Z,52.36
2023-03-11T20:06:04.438Z,52.50
2023-03-11T20:08:36.578Z,52.49
2023-03-11T20:11:05.598Z,52.36
2023-03-11T20:13:34.355Z,52.45
2023-03-11T20:16:12.532Z,52.47
2023-03-11T20:18:39.726Z,52.42
2023-03-11T20:21:12.189Z,52.50
2023-03-11T20:23:40.311Z,52.61
2023-03-11T20:26:15.291Z,52.40
2023-03-11T20:28:42.495Z,52.42
2023-03-11T20:31:17.024Z,52.30
2023-03-11T20:33:44.185Z,52.30
2023-03-11T20:36:13.772Z,52.50
2023-03-11T20:38:41.852Z,52.45
2023-03-11T20:41:10.058Z,52.76
2023-03-11T20:43:38.114Z,52.24
2023-03-11T20:46:06.514Z,52.28
2023-03-11T20:48:33.762Z,52.41
2023-03-11T20:51:06.691Z,52.52
2023-03-11T20:53:34.367Z,52.31
2023-03-11T20:56:09.899Z,52.26
2023-03-11T20:58:37.355Z,52.33
2023-03-11T21:01:16.140Z,52.26
2023-03-11T21:03:44.440Z,52.25
2023-03-11T21:06:19.202Z,52.21
2023-03-11T21:08:50.068Z,52.28
2023-03-11T21:11:17.624Z,52.51
2023-03-11T21:13:44.933Z,52.18
2023-03-11T21:16:11.927Z,52.25
2023-03-11T21:18:39.869Z,52.05
2023-03-11T21:21:10.608Z,52.48
2023-03-11T21:23:39.293Z,52.33
2023-03-11T21:26:07.012Z,52.20
2023-03-11T21:28:35.433Z,52.23
2023-03-11T21:31:08.089Z,52.37
2023-03-11T21:33:35.080Z,52.54
2023-03-11T21:36:01.980Z,52.53
2023-03-11T21:38:32.646Z,52.73
2023-03-11T21:41:11.944Z,52.63
2023-03-11T21:43:40.651Z,52.69
2023-03-11T21:46:08.677Z,52.73
2023-03-11T21:48:37.633Z,52.46
2023-03-11T21:51:04.884Z,52.52
2023-03-11T21:53:32.249Z,52.79
2023-03-11T21:56:03.755Z,52.90
2023-03-11T21:58:31.402Z,53.04
2023-03-11T22:00:58.177Z,53.18
2023-03-11T22:03:25.158Z,53.43
2023-03-11T22:06:03.413Z,53.51
2023-03-11T22:08:30.842Z,53.84
2023-03-11T22:10:57.691Z,53.94
2023-03-11T22:13:24.934Z,54.22
2023-03-11T22:15:52.190Z,54.41
2023-03-11T22:18:19.273Z,54.29
2023-03-11T22:20:46.121Z,54.63
2023-03-11T22:23:12.873Z,54.66
2023-03-11T22:25:39.715Z,54.66
2023-03-11T22:28:06.525Z,54.84
2023-03-11T22:30:33.313Z,54.72
2023-03-11T22:33:00.010Z,54.97
2023-03-11T22:35:26.635Z,55.02
2023-03-11T22:37:53.293Z,55.27
2023-03-11T22:40:20.200Z,55.52
2023-03-11T22:42:47.004Z,55.42
2023-03-11T22:45:13.995Z,55.44
2023-03-11T22:47:40.676Z,55.41
2023-03-11T22:50:07.760Z,55.44
2023-03-11T22:52:34.386Z,55.54
2023-03-11T22:55:01.118Z,55.73
2023-03-11T22:57:27.833Z,55.97
2023-03-11T22:59:54.546Z,56.09
2023-03-11T23:02:21.578Z,55.83
2023-03-11T23:04:48.423Z,56.12
2023-03-11T23:07:15.193Z,56.09
2023-03-11T23:09:42.909Z,56.20
2023-03-11T23:12:09.991Z,56.46
2023-03-11T23:14:44.599Z,56.21
2023-03-11T23:17:12.068Z,56.40
2023-03-11T23:19:38.808Z,56.62
2023-03-11T23:22:24.740Z,56.49
2023-03-11T23:24:51.589Z,56.64
2023-03-11T23:27:18.419Z,56.69
2023-03-11T23:29:45.199Z,56.81
2023-03-11T23:32:12.027Z,56.75
2023-03-11T23:34:38.870Z,56.90
2023-03-11T23:37:05.957Z,56.74
2023-03-11T23:39:32.691Z,56.75
2023-03-11T23:41:59.471Z,56.89
2023-03-11T23:44:26.903Z,57.11
2023-03-11T23:46:53.771Z,57.04
2023-03-11T23:49:20.584Z,57.05
2023-03-11T23:51:47.180Z,56.78
2023-03-11T23:54:13.855Z,56.90
2023-03-11T23:56:40.609Z,57.12
2023-03-11T23:59:07.309Z,57.17
